sensor_id;sensor_type;location;lat;lon;timestamp;P1;durP1;ratioP1;P2;durP2;ratioP2
33954;SDS011;20233;50.804;7.126;2022-07-25T00:01:41;7.28;;;5.72;;
33954;SDS011;20233;50.804;7.126;2022-07-25T00:04:07;5.80;;;5.15;;
33954;SDS011;20233;50.804;7.126;2022-07-25T00:06:33;7.30;;;5.68;;
33954;SDS011;20233;50.804;7.126;2022-07-25T00:08:59;7.63;;;5.60;;
33954;SDS011;20233;50.804;7.126;2022-07-25T00:11:25;7.78;;;5.53;;
33954;SDS011;20233;50.804;7.126;2022-07-25T00:13:51;5.85;;;5.25;;
33954;SDS011;20233;50.804;7.126;2022-07-25T00:16:17;9.45;;;5.82;;
33954;SDS011;20233;50.804;7.126;2022-07-25T00:18:42;7.40;;;5.65;;
33954;SDS011;20233;50.804;7.126;2022-07-25T00:21:08;8.10;;;6.20;;
33954;SDS011;20233;50.804;7.126;2022-07-25T00:23:34;6.13;;;5.53;;
33954;SDS011;20233;50.804;7.126;2022-07-25T00:25:59;6.57;;;5.65;;
33954;SDS011;20233;50.804;7.126;2022-07-25T00:28:25;7.15;;;5.43;;
33954;SDS011;20233;50.804;7.126;2022-07-25T00:30:50;7.75;;;5.45;;
33954;SDS011;20233;50.804;7.126;2022-07-25T00:33:16;9.00;;;6.10;;
33954;SDS011;20233;50.804;7.126;2022-07-25T00:35:41;9.18;;;6.53;;
33954;SDS011;20233;50.804;7.126;2022-07-25T00:38:07;6.95;;;5.68;;
33954;SDS011;20233;50.804;7.126;2022-07-25T00:40:33;7.65;;;5.93;;
33954;SDS011;20233;50.804;7.126;2022-07-25T00:42:59;7.18;;;5.93;;
33954;SDS011;20233;50.804;7.126;2022-07-25T00:45:24;5.53;;;4.90;;
33954;SDS011;20233;50.804;7.126;2022-07-25T00:47:50;7.32;;;5.60;;
33954;SDS011;20233;50.804;7.126;2022-07-25T00:50:16;6.28;;;5.55;;
33954;SDS011;20233;50.804;7.126;2022-07-25T00:52:41;7.38;;;5.80;;
33954;SDS011;20233;50.804;7.126;2022-07-25T00:55:07;6.38;;;5.65;;
33954;SDS011;20233;50.804;7.126;2022-07-25T00:57:33;8.60;;;6.00;;
33954;SDS011;20233;50.804;7.126;2022-07-25T00:59:59;8.15;;;5.95;;
33954;SDS011;20233;50.804;7.126;2022-07-25T01:02:24;9.07;;;6.00;;
33954;SDS011;20233;50.804;7.126;2022-07-25T01:04:50;6.45;;;5.38;;
33954;SDS011;20233;50.804;7.126;2022-07-25T01:07:16;6.65;;;5.78;;
33954;SDS011;20233;50.804;7.126;2022-07-25T01:09:42;8.63;;;5.65;;
33954;SDS011;20233;50.804;7.126;2022-07-25T01:12:08;7.43;;;5.03;;
33954;SDS011;20233;50.804;7.126;2022-07-25T01:14:33;8.05;;;6.03;;
33954;SDS011;20233;50.804;7.126;2022-07-25T01:16:59;6.75;;;5.88;;
33954;SDS011;20233;50.804;7.126;2022-07-25T01:19:25;6.78;;;5.40;;
33954;SDS011;20233;50.804;7.126;2022-07-25T01:21:50;7.22;;;5.75;;
33954;SDS011;20233;50.804;7.126;2022-07-25T01:24:16;7.60;;;5.65;;
33954;SDS011;20233;50.804;7.126;2022-07-25T01:26:41;7.95;;;5.30;;
33954;SDS011;20233;50.804;7.126;2022-07-25T01:29:07;6.30;;;5.70;;
33954;SDS011;20233;50.804;7.126;2022-07-25T01:31:33;7.80;;;5.57;;
33954;SDS011;20233;50.804;7.126;2022-07-25T01:33:58;6.80;;;5.63;;
33954;SDS011;20233;50.804;7.126;2022-07-25T01:36:24;6.43;;;5.70;;
33954;SDS011;20233;50.804;7.126;2022-07-25T01:38:49;7.20;;;5.60;;
33954;SDS011;20233;50.804;7.126;2022-07-25T01:41:15;9.07;;;6.40;;
33954;SDS011;20233;50.804;7.126;2022-07-25T01:43:40;8.82;;;6.57;;
33954;SDS011;20233;50.804;7.126;2022-07-25T01:46:06;6.95;;;5.90;;
33954;SDS011;20233;50.804;7.126;2022-07-25T01:48:31;6.85;;;5.97;;
33954;SDS011;20233;50.804;7.126;2022-07-25T01:50:57;6.78;;;5.88;;
33954;SDS011;20233;50.804;7.126;2022-07-25T01:53:23;6.22;;;5.53;;
33954;SDS011;20233;50.804;7.126;2022-07-25T01:55:48;6.53;;;5.60;;
33954;SDS011;20233;50.804;7.126;2022-07-25T01:58:14;10.15;;;6.13;;
33954;SDS011;20233;50.804;7.126;2022-07-25T02:00:39;11.68;;;6.13;;
33954;SDS011;20233;50.804;7.126;2022-07-25T02:03:05;8.60;;;5.70;;
33954;SDS011;20233;50.804;7.126;2022-07-25T02:05:49;6.72;;;5.75;;
33954;SDS011;20233;50.804;7.126;2022-07-25T02:08:14;6.38;;;5.60;;
33954;SDS011;20233;50.804;7.126;2022-07-25T02:10:40;9.35;;;6.07;;
33954;SDS011;20233;50.804;7.126;2022-07-25T02:13:06;7.13;;;6.05;;
33954;SDS011;20233;50.804;7.126;2022-07-25T02:15:31;6.97;;;6.18;;
33954;SDS011;20233;50.804;7.126;2022-07-25T02:17:57;7.50;;;5.97;;
33954;SDS011;20233;50.804;7.126;2022-07-25T02:20:23;6.28;;;5.68;;
33954;SDS011;20233;50.804;7.126;2022-07-25T02:22:48;7.85;;;6.00;;
33954;SDS011;20233;50.804;7.126;2022-07-25T02:25:14;7.32;;;5.82;;
33954;SDS011;20233;50.804;7.126;2022-07-25T02:27:39;7.10;;;5.82;;
33954;SDS011;20233;50.804;7.126;2022-07-25T02:30:05;7.68;;;6.10;;
33954;SDS011;20233;50.804;7.126;2022-07-25T02:32:31;6.82;;;5.88;;
33954;SDS011;20233;50.804;7.126;2022-07-25T02:34:57;6.70;;;6.00;;
33954;SDS011;20233;50.804;7.126;2022-07-25T02:37:23;6.88;;;5.60;;
33954;SDS011;20233;50.804;7.126;2022-07-25T02:39:48;8.77;;;6.70;;
33954;SDS011;20233;50.804;7.126;2022-07-25T02:42:14;8.02;;;5.90;;
33954;SDS011;20233;50.804;7.126;2022-07-25T02:44:40;6.85;;;5.72;;
33954;SDS011;20233;50.804;7.126;2022-07-25T02:47:06;7.30;;;6.25;;
33954;SDS011;20233;50.804;7.126;2022-07-25T02:49:31;7.45;;;6.32;;
33954;SDS011;20233;50.804;7.126;2022-07-25T02:51:57;11.32;;;6.22;;
33954;SDS011;20233;50.804;7.126;2022-07-25T02:54:22;8.35;;;5.50;;
33954;SDS011;20233;50.804;7.126;2022-07-25T02:56:48;9.50;;;6.88;;
33954;SDS011;20233;50.804;7.126;2022-07-25T02:59:14;7.80;;;6.20;;
33954;SDS011;20233;50.804;7.126;2022-07-25T03:01:39;6.80;;;5.88;;
33954;SDS011;20233;50.804;7.126;2022-07-25T03:04:05;8.73;;;6.22;;
33954;SDS011;20233;50.804;7.126;2022-07-25T03:06:30;8.40;;;6.60;;
33954;SDS011;20233;50.804;7.126;2022-07-25T03:08:56;9.68;;;6.95;;
33954;SDS011;20233;50.804;7.126;2022-07-25T03:11:22;8.52;;;6.47;;
33954;SDS011;20233;50.804;7.126;2022-07-25T03:13:47;7.40;;;6.38;;
33954;SDS011;20233;50.804;7.126;2022-07-25T03:16:13;7.25;;;5.28;;
33954;SDS011;20233;50.804;7.126;2022-07-25T03:18:38;8.15;;;6.10;;
33954;SDS011;20233;50.804;7.126;2022-07-25T03:21:04;7.63;;;6.68;;
33954;SDS011;20233;50.804;7.126;2022-07-25T03:23:30;8.77;;;6.43;;
33954;SDS011;20233;50.804;7.126;2022-07-25T03:25:56;9.75;;;6.13;;
33954;SDS011;20233;50.804;7.126;2022-07-25T03:28:22;6.93;;;6.00;;
33954;SDS011;20233;50.804;7.126;2022-07-25T03:30:48;6.78;;;5.80;;
33954;SDS011;20233;50.804;7.126;2022-07-25T03:33:14;7.05;;;6.35;;
33954;SDS011;20233;50.804;7.126;2022-07-25T03:35:40;8.73;;;6.82;;
33954;SDS011;20233;50.804;7.126;2022-07-25T03:38:06;6.03;;;5.43;;
33954;SDS011;20233;50.804;7.126;2022-07-25T03:40:32;7.25;;;5.85;;
33954;SDS011;20233;50.804;7.126;2022-07-25T03:42:57;6.72;;;5.65;;
33954;SDS011;20233;50.804;7.126;2022-07-25T03:45:23;8.23;;;5.88;;
33954;SDS011;20233;50.804;7.126;2022-07-25T03:47:48;8.05;;;5.60;;
33954;SDS011;20233;50.804;7.126;2022-07-25T03:50:14;7.22;;;5.93;;
33954;SDS011;20233;50.804;7.126;2022-07-25T03:52:40;9.82;;;5.97;;
33954;SDS011;20233;50.804;7.126;2022-07-25T03:55:06;8.40;;;6.47;;
33954;SDS011;20233;50.804;7.126;2022-07-25T03:57:33;8.52;;;6.25;;
33954;SDS011;20233;50.804;7.126;2022-07-25T03:59:59;8.82;;;6.05;;
33954;SDS011;20233;50.804;7.126;2022-07-25T04:02:24;7.15;;;6.00;;
33954;SDS011;20233;50.804;7.126;2022-07-25T04:04:50;11.43;;;6.60;;
33954;SDS011;20233;50.804;7.126;2022-07-25T04:07:15;7.47;;;6.18;;
33954;SDS011;20233;50.804;7.126;2022-07-25T04:09:41;7.47;;;5.93;;
33954;SDS011;20233;50.804;7.126;2022-07-25T04:12:07;9.35;;;6.20;;
33954;SDS011;20233;50.804;7.126;2022-07-25T04:14:32;8.75;;;6.13;;
33954;SDS011;20233;50.804;7.126;2022-07-25T04:16:58;7.10;;;5.88;;
33954;SDS011;20233;50.804;7.126;2022-07-25T04:19:24;8.07;;;5.60;;
33954;SDS011;20233;50.804;7.126;2022-07-25T04:21:49;6.65;;;5.13;;
33954;SDS011;20233;50.804;7.126;2022-07-25T04:24:15;6.97;;;5.63;;
33954;SDS011;20233;50.804;7.126;2022-07-25T04:26:41;6.50;;;5.55;;
33954;SDS011;20233;50.804;7.126;2022-07-25T04:29:06;10.55;;;6.15;;
33954;SDS011;20233;50.804;7.126;2022-07-25T04:31:32;6.65;;;5.95;;
33954;SDS011;20233;50.804;7.126;2022-07-25T04:33:58;8.00;;;6.07;;
33954;SDS011;20233;50.804;7.126;2022-07-25T04:36:23;7.30;;;5.47;;
33954;SDS011;20233;50.804;7.126;2022-07-25T04:38:50;8.60;;;5.65;;
33954;SDS011;20233;50.804;7.126;2022-07-25T04:41:16;8.93;;;5.93;;
33954;SDS011;20233;50.804;7.126;2022-07-25T04:43:42;6.95;;;5.35;;
33954;SDS011;20233;50.804;7.126;2022-07-25T04:46:07;8.60;;;6.20;;
33954;SDS011;20233;50.804;7.126;2022-07-25T04:48:33;7.82;;;5.13;;
33954;SDS011;20233;50.804;7.126;2022-07-25T04:50:59;5.97;;;5.38;;
33954;SDS011;20233;50.804;7.126;2022-07-25T04:53:25;8.77;;;6.13;;
33954;SDS011;20233;50.804;7.126;2022-07-25T04:55:50;8.00;;;5.63;;
33954;SDS011;20233;50.804;7.126;2022-07-25T04:58:16;8.73;;;5.93;;
33954;SDS011;20233;50.804;7.126;2022-07-25T05:00:42;8.85;;;6.13;;
33954;SDS011;20233;50.804;7.126;2022-07-25T05:03:08;7.47;;;5.03;;
33954;SDS011;20233;50.804;7.126;2022-07-25T05:05:34;7.38;;;5.07;;
33954;SDS011;20233;50.804;7.126;2022-07-25T05:07:59;6.78;;;5.90;;
33954;SDS011;20233;50.804;7.126;2022-07-25T05:10:26;7.53;;;5.72;;
33954;SDS011;20233;50.804;7.126;2022-07-25T05:12:53;11.25;;;5.90;;
33954;SDS011;20233;50.804;7.126;2022-07-25T05:15:19;7.40;;;5.28;;
33954;SDS011;20233;50.804;7.126;2022-07-25T05:17:45;6.47;;;5.45;;
33954;SDS011;20233;50.804;7.126;2022-07-25T05:20:12;7.65;;;6.18;;
33954;SDS011;20233;50.804;7.126;2022-07-25T05:22:38;7.97;;;5.55;;
33954;SDS011;20233;50.804;7.126;2022-07-25T05:25:07;6.75;;;5.47;;
33954;SDS011;20233;50.804;7.126;2022-07-25T05:30:00;8.07;;;5.75;;
33954;SDS011;20233;50.804;7.126;2022-07-25T05:32:26;9.43;;;5.22;;
33954;SDS011;20233;50.804;7.126;2022-07-25T05:34:51;8.38;;;5.05;;
33954;SDS011;20233;50.804;7.126;2022-07-25T05:37:18;9.90;;;6.13;;
33954;SDS011;20233;50.804;7.126;2022-07-25T05:39:44;6.55;;;5.85;;
33954;SDS011;20233;50.804;7.126;2022-07-25T05:42:09;8.40;;;5.25;;
33954;SDS011;20233;50.804;7.126;2022-07-25T05:44:35;6.72;;;5.47;;
33954;SDS011;20233;50.804;7.126;2022-07-25T05:47:01;9.00;;;5.57;;
33954;SDS011;20233;50.804;7.126;2022-07-25T05:49:26;7.22;;;5.53;;
33954;SDS011;20233;50.804;7.126;2022-07-25T05:51:52;8.07;;;5.65;;
33954;SDS011;20233;50.804;7.126;2022-07-25T05:54:18;8.48;;;4.78;;
33954;SDS011;20233;50.804;7.126;2022-07-25T05:56:43;5.70;;;4.88;;
33954;SDS011;20233;50.804;7.126;2022-07-25T05:59:09;7.15;;;5.30;;
33954;SDS011;20233;50.804;7.126;2022-07-25T06:01:35;8.02;;;5.45;;
33954;SDS011;20233;50.804;7.126;2022-07-25T06:04:00;7.18;;;4.70;;
33954;SDS011;20233;50.804;7.126;2022-07-25T06:06:26;7.63;;;5.65;;
33954;SDS011;20233;50.804;7.126;2022-07-25T06:08:52;7.90;;;5.47;;
33954;SDS011;20233;50.804;7.126;2022-07-25T06:11:17;6.10;;;4.47;;
33954;SDS011;20233;50.804;7.126;2022-07-25T06:13:43;7.00;;;4.50;;
33954;SDS011;20233;50.804;7.126;2022-07-25T06:16:08;7.55;;;5.25;;
33954;SDS011;20233;50.804;7.126;2022-07-25T06:18:34;6.75;;;5.15;;
33954;SDS011;20233;50.804;7.126;2022-07-25T06:21:00;8.45;;;5.63;;
33954;SDS011;20233;50.804;7.126;2022-07-25T06:23:25;6.80;;;5.43;;
33954;SDS011;20233;50.804;7.126;2022-07-25T06:25:51;6.65;;;4.85;;
33954;SDS011;20233;50.804;7.126;2022-07-25T06:28:17;7.47;;;5.50;;
33954;SDS011;20233;50.804;7.126;2022-07-25T06:30:43;7.55;;;4.90;;
33954;SDS011;20233;50.804;7.126;2022-07-25T06:33:09;5.40;;;4.20;;
33954;SDS011;20233;50.804;7.126;2022-07-25T06:35:35;6.55;;;4.60;;
33954;SDS011;20233;50.804;7.126;2022-07-25T06:38:01;6.50;;;4.93;;
33954;SDS011;20233;50.804;7.126;2022-07-25T06:40:27;6.78;;;4.78;;
33954;SDS011;20233;50.804;7.126;2022-07-25T06:42:53;6.03;;;4.65;;
33954;SDS011;20233;50.804;7.126;2022-07-25T06:45:18;6.57;;;5.13;;
33954;SDS011;20233;50.804;7.126;2022-07-25T06:47:44;6.35;;;5.18;;
33954;SDS011;20233;50.804;7.126;2022-07-25T06:50:11;9.25;;;5.10;;
33954;SDS011;20233;50.804;7.126;2022-07-25T06:52:39;5.90;;;4.78;;
33954;SDS011;20233;50.804;7.126;2022-07-25T06:55:06;6.18;;;5.22;;
33954;SDS011;20233;50.804;7.126;2022-07-25T06:57:33;5.53;;;4.93;;
33954;SDS011;20233;50.804;7.126;2022-07-25T06:59:59;6.13;;;4.88;;
33954;SDS011;20233;50.804;7.126;2022-07-25T07:02:25;5.57;;;4.43;;
33954;SDS011;20233;50.804;7.126;2022-07-25T07:04:51;5.22;;;4.70;;
33954;SDS011;20233;50.804;7.126;2022-07-25T07:07:16;6.40;;;5.18;;
33954;SDS011;20233;50.804;7.126;2022-07-25T07:09:42;5.88;;;4.50;;
33954;SDS011;20233;50.804;7.126;2022-07-25T07:12:08;6.47;;;4.70;;
33954;SDS011;20233;50.804;7.126;2022-07-25T07:14:34;5.18;;;4.68;;
33954;SDS011;20233;50.804;7.126;2022-07-25T07:17:01;6.00;;;4.47;;
33954;SDS011;20233;50.804;7.126;2022-07-25T07:19:27;6.63;;;4.57;;
33954;SDS011;20233;50.804;7.126;2022-07-25T07:21:53;7.18;;;4.95;;
33954;SDS011;20233;50.804;7.126;2022-07-25T07:24:19;7.55;;;5.10;;
33954;SDS011;20233;50.804;7.126;2022-07-25T07:26:44;6.18;;;4.88;;
33954;SDS011;20233;50.804;7.126;2022-07-25T07:29:10;8.05;;;5.10;;
33954;SDS011;20233;50.804;7.126;2022-07-25T07:31:35;4.80;;;4.30;;
33954;SDS011;20233;50.804;7.126;2022-07-25T07:34:01;6.45;;;5.20;;
33954;SDS011;20233;50.804;7.126;2022-07-25T07:36:27;7.18;;;5.22;;
33954;SDS011;20233;50.804;7.126;2022-07-25T07:38:52;5.60;;;4.57;;
33954;SDS011;20233;50.804;7.126;2022-07-25T07:41:18;5.85;;;5.05;;
33954;SDS011;20233;50.804;7.126;2022-07-25T07:43:44;4.88;;;4.38;;
33954;SDS011;20233;50.804;7.126;2022-07-25T07:46:10;6.30;;;5.18;;
33954;SDS011;20233;50.804;7.126;2022-07-25T07:48:35;5.70;;;4.82;;
33954;SDS011;20233;50.804;7.126;2022-07-25T07:51:01;8.75;;;4.57;;
33954;SDS011;20233;50.804;7.126;2022-07-25T07:53:28;8.63;;;4.78;;
33954;SDS011;20233;50.804;7.126;2022-07-25T07:56:13;6.15;;;4.43;;
33954;SDS011;20233;50.804;7.126;2022-07-25T07:58:39;6.80;;;5.15;;
33954;SDS011;20233;50.804;7.126;2022-07-25T08:01:05;5.90;;;5.25;;
33954;SDS011;20233;50.804;7.126;2022-07-25T08:03:31;6.55;;;5.10;;
33954;SDS011;20233;50.804;7.126;2022-07-25T08:05:57;7.28;;;5.07;;
33954;SDS011;20233;50.804;7.126;2022-07-25T08:08:22;7.00;;;4.60;;
33954;SDS011;20233;50.804;7.126;2022-07-25T08:10:49;7.00;;;4.90;;
33954;SDS011;20233;50.804;7.126;2022-07-25T08:15:42;7.15;;;5.07;;
33954;SDS011;20233;50.804;7.126;2022-07-25T08:18:09;5.75;;;5.15;;
33954;SDS011;20233;50.804;7.126;2022-07-25T08:20:35;5.32;;;4.82;;
33954;SDS011;20233;50.804;7.126;2022-07-25T08:23:01;9.02;;;4.72;;
33954;SDS011;20233;50.804;7.126;2022-07-25T08:25:27;6.75;;;5.22;;
33954;SDS011;20233;50.804;7.126;2022-07-25T08:27:53;6.70;;;5.07;;
33954;SDS011;20233;50.804;7.126;2022-07-25T08:30:19;7.40;;;5.32;;
33954;SDS011;20233;50.804;7.126;2022-07-25T08:32:45;6.97;;;4.60;;
33954;SDS011;20233;50.804;7.126;2022-07-25T08:35:20;6.32;;;4.82;;
33954;SDS011;20233;50.804;7.126;2022-07-25T08:37:46;5.57;;;4.72;;
33954;SDS011;20233;50.804;7.126;2022-07-25T08:40:13;5.28;;;4.78;;
33954;SDS011;20233;50.804;7.126;2022-07-25T08:42:40;6.78;;;4.90;;
33954;SDS011;20233;50.804;7.126;2022-07-25T08:45:07;8.68;;;5.10;;
33954;SDS011;20233;50.804;7.126;2022-07-25T08:47:34;6.57;;;5.22;;
33954;SDS011;20233;50.804;7.126;2022-07-25T08:50:04;5.45;;;4.50;;
33954;SDS011;20233;50.804;7.126;2022-07-25T08:52:33;8.20;;;5.55;;
33954;SDS011;20233;50.804;7.126;2022-07-25T08:55:06;5.97;;;5.15;;
33954;SDS011;20233;50.804;7.126;2022-07-25T08:57:35;6.70;;;5.35;;
33954;SDS011;20233;50.804;7.126;2022-07-25T09:00:04;6.15;;;4.97;;
33954;SDS011;20233;50.804;7.126;2022-07-25T09:02:30;6.13;;;4.97;;
33954;SDS011;20233;50.804;7.126;2022-07-25T09:04:56;6.13;;;4.72;;
33954;SDS011;20233;50.804;7.126;2022-07-25T09:07:32;7.20;;;4.70;;
33954;SDS011;20233;50.804;7.126;2022-07-25T09:10:13;6.50;;;4.88;;
33954;SDS011;20233;50.804;7.126;2022-07-25T09:13:03;6.80;;;4.82;;
33954;SDS011;20233;50.804;7.126;2022-07-25T09:15:33;8.30;;;5.50;;
33954;SDS011;20233;50.804;7.126;2022-07-25T09:18:02;7.53;;;4.90;;
33954;SDS011;20233;50.804;7.126;2022-07-25T09:20:52;6.03;;;4.45;;
33954;SDS011;20233;50.804;7.126;2022-07-25T09:23:33;5.07;;;4.57;;
33954;SDS011;20233;50.804;7.126;2022-07-25T09:26:07;7.15;;;4.70;;
33954;SDS011;20233;50.804;7.126;2022-07-25T09:28:40;4.90;;;4.40;;
33954;SDS011;20233;50.804;7.126;2022-07-25T09:31:07;5.60;;;4.32;;
33954;SDS011;20233;50.804;7.126;2022-07-25T09:33:33;6.57;;;4.80;;
33954;SDS011;20233;50.804;7.126;2022-07-25T09:36:09;5.75;;;4.53;;
33954;SDS011;20233;50.804;7.126;2022-07-25T09:38:36;6.97;;;4.65;;
33954;SDS011;20233;50.804;7.126;2022-07-25T09:41:01;5.82;;;4.68;;
33954;SDS011;20233;50.804;7.126;2022-07-25T09:43:37;5.20;;;4.63;;
33954;SDS011;20233;50.804;7.126;2022-07-25T09:46:07;8.10;;;5.33;;
33954;SDS011;20233;50.804;7.126;2022-07-25T09:48:34;5.20;;;4.70;;
33954;SDS011;20233;50.804;7.126;2022-07-25T09:51:01;8.13;;;4.50;;
33954;SDS011;20233;50.804;7.126;2022-07-25T09:53:27;7.05;;;5.13;;
33954;SDS011;20233;50.804;7.126;2022-07-25T09:55:55;7.50;;;5.18;;
33954;SDS011;20233;50.804;7.126;2022-07-25T09:58:25;9.93;;;4.65;;
33954;SDS011;20233;50.804;7.126;2022-07-25T10:00:56;5.45;;;4.43;;
33954;SDS011;20233;50.804;7.126;2022-07-25T10:06:09;7.85;;;4.47;;
33954;SDS011;20233;50.804;7.126;2022-07-25T10:08:44;5.90;;;4.43;;
33954;SDS011;20233;50.804;7.126;2022-07-25T10:11:20;6.05;;;4.35;;
33954;SDS011;20233;50.804;7.126;2022-07-25T10:13:48;4.72;;;4.28;;
33954;SDS011;20233;50.804;7.126;2022-07-25T10:16:18;5.28;;;4.68;;
33954;SDS011;20233;50.804;7.126;2022-07-25T10:18:48;5.25;;;4.78;;
33954;SDS011;20233;50.804;7.126;2022-07-25T10:21:16;6.82;;;4.75;;
33954;SDS011;20233;50.804;7.126;2022-07-25T10:23:42;5.88;;;4.65;;
33954;SDS011;20233;50.804;7.126;2022-07-25T10:26:08;6.47;;;4.32;;
33954;SDS011;20233;50.804;7.126;2022-07-25T10:28:50;5.40;;;4.90;;
33954;SDS011;20233;50.804;7.126;2022-07-25T10:31:34;5.13;;;4.28;;
33954;SDS011;20233;50.804;7.126;2022-07-25T10:34:03;5.70;;;4.65;;
33954;SDS011;20233;50.804;7.126;2022-07-25T10:36:44;9.10;;;4.90;;
33954;SDS011;20233;50.804;7.126;2022-07-25T10:39:16;5.50;;;4.93;;
33954;SDS011;20233;50.804;7.126;2022-07-25T10:41:52;7.22;;;4.63;;
33954;SDS011;20233;50.804;7.126;2022-07-25T10:44:20;9.07;;;6.07;;
33954;SDS011;20233;50.804;7.126;2022-07-25T10:46:46;8.27;;;5.47;;
33954;SDS011;20233;50.804;7.126;2022-07-25T10:49:20;11.05;;;6.00;;
33954;SDS011;20233;50.804;7.126;2022-07-25T10:51:54;8.43;;;5.47;;
33954;SDS011;20233;50.804;7.126;2022-07-25T10:54:23;9.15;;;5.25;;
33954;SDS011;20233;50.804;7.126;2022-07-25T10:56:53;8.98;;;5.50;;
33954;SDS011;20233;50.804;7.126;2022-07-25T10:59:26;9.77;;;5.78;;
33954;SDS011;20233;50.804;7.126;2022-07-25T11:02:03;8.55;;;5.10;;
33954;SDS011;20233;50.804;7.126;2022-07-25T11:04:30;8.85;;;5.45;;
33954;SDS011;20233;50.804;7.126;2022-07-25T11:06:56;16.88;;;6.15;;
33954;SDS011;20233;50.804;7.126;2022-07-25T11:09:30;7.72;;;5.47;;
33954;SDS011;20233;50.804;7.126;2022-07-25T11:11:58;8.40;;;5.93;;
33954;SDS011;20233;50.804;7.126;2022-07-25T11:17:19;11.32;;;5.95;;
33954;SDS011;20233;50.804;7.126;2022-07-25T11:22:19;17.23;;;4.97;;
33954;SDS011;20233;50.804;7.126;2022-07-25T11:24:45;9.25;;;4.75;;
33954;SDS011;20233;50.804;7.126;2022-07-25T11:27:18;11.32;;;5.22;;
33954;SDS011;20233;50.804;7.126;2022-07-25T11:29:45;16.80;;;5.85;;
33954;SDS011;20233;50.804;7.126;2022-07-25T11:32:11;8.45;;;5.13;;
33954;SDS011;20233;50.804;7.126;2022-07-25T11:34:38;17.92;;;6.25;;
33954;SDS011;20233;50.804;7.126;2022-07-25T11:37:10;9.20;;;5.75;;
33954;SDS011;20233;50.804;7.126;2022-07-25T11:39:37;13.93;;;5.28;;
33954;SDS011;20233;50.804;7.126;2022-07-25T11:42:05;8.65;;;5.40;;
33954;SDS011;20233;50.804;7.126;2022-07-25T11:49:49;9.60;;;4.70;;
33954;SDS011;20233;50.804;7.126;2022-07-25T11:52:37;10.95;;;5.07;;
33954;SDS011;20233;50.804;7.126;2022-07-25T11:55:03;11.25;;;5.07;;
33954;SDS011;20233;50.804;7.126;2022-07-25T11:59:59;10.23;;;5.22;;
33954;SDS011;20233;50.804;7.126;2022-07-25T12:02:27;7.82;;;5.18;;
33954;SDS011;20233;50.804;7.126;2022-07-25T12:05:02;6.80;;;5.18;;
33954;SDS011;20233;50.804;7.126;2022-07-25T12:10:16;14.23;;;5.78;;
33954;SDS011;20233;50.804;7.126;2022-07-25T12:12:46;8.07;;;4.93;;
33954;SDS011;20233;50.804;7.126;2022-07-25T12:15:19;10.05;;;5.25;;
33954;SDS011;20233;50.804;7.126;2022-07-25T12:17:46;8.43;;;4.95;;
33954;SDS011;20233;50.804;7.126;2022-07-25T12:20:14;8.40;;;5.88;;
33954;SDS011;20233;50.804;7.126;2022-07-25T12:22:41;6.40;;;5.07;;
33954;SDS011;20233;50.804;7.126;2022-07-25T12:25:08;12.25;;;5.10;;
33954;SDS011;20233;50.804;7.126;2022-07-25T12:27:34;8.98;;;5.10;;
33954;SDS011;20233;50.804;7.126;2022-07-25T12:30:00;8.73;;;4.40;;
33954;SDS011;20233;50.804;7.126;2022-07-25T12:32:25;7.28;;;4.40;;
33954;SDS011;20233;50.804;7.126;2022-07-25T12:34:51;9.32;;;4.47;;
33954;SDS011;20233;50.804;7.126;2022-07-25T12:37:17;16.30;;;3.88;;
33954;SDS011;20233;50.804;7.126;2022-07-25T12:39:42;8.35;;;3.58;;
33954;SDS011;20233;50.804;7.126;2022-07-25T12:42:08;4.85;;;3.60;;
33954;SDS011;20233;50.804;7.126;2022-07-25T12:44:33;5.63;;;3.47;;
33954;SDS011;20233;50.804;7.126;2022-07-25T12:47:00;17.83;;;3.97;;
33954;SDS011;20233;50.804;7.126;2022-07-25T12:49:26;6.47;;;2.70;;
33954;SDS011;20233;50.804;7.126;2022-07-25T12:51:53;7.65;;;3.25;;
33954;SDS011;20233;50.804;7.126;2022-07-25T12:54:18;7.95;;;3.42;;
33954;SDS011;20233;50.804;7.126;2022-07-25T12:56:44;9.82;;;3.35;;
33954;SDS011;20233;50.804;7.126;2022-07-25T12:59:10;8.27;;;2.88;;
33954;SDS011;20233;50.804;7.126;2022-07-25T13:01:35;5.90;;;2.85;;
33954;SDS011;20233;50.804;7.126;2022-07-25T13:04:01;8.05;;;3.28;;
33954;SDS011;20233;50.804;7.126;2022-07-25T13:06:31;8.23;;;3.20;;
33954;SDS011;20233;50.804;7.126;2022-07-25T13:08:57;6.88;;;3.13;;
33954;SDS011;20233;50.804;7.126;2022-07-25T13:11:23;6.60;;;3.15;;
33954;SDS011;20233;50.804;7.126;2022-07-25T13:13:48;14.43;;;3.70;;
33954;SDS011;20233;50.804;7.126;2022-07-25T13:16:14;7.10;;;3.28;;
33954;SDS011;20233;50.804;7.126;2022-07-25T13:18:40;8.80;;;3.22;;
33954;SDS011;20233;50.804;7.126;2022-07-25T13:21:08;4.60;;;2.90;;
33954;SDS011;20233;50.804;7.126;2022-07-25T13:23:34;7.90;;;3.22;;
33954;SDS011;20233;50.804;7.126;2022-07-25T13:26:00;10.13;;;2.88;;
33954;SDS011;20233;50.804;7.126;2022-07-25T13:28:26;12.85;;;4.28;;
33954;SDS011;20233;50.804;7.126;2022-07-25T13:30:52;10.25;;;3.10;;
33954;SDS011;20233;50.804;7.126;2022-07-25T13:33:19;11.77;;;3.10;;
33954;SDS011;20233;50.804;7.126;2022-07-25T13:35:45;5.00;;;2.25;;
33954;SDS011;20233;50.804;7.126;2022-07-25T13:38:11;7.30;;;1.98;;
33954;SDS011;20233;50.804;7.126;2022-07-25T13:40:37;9.52;;;2.47;;
33954;SDS011;20233;50.804;7.126;2022-07-25T13:43:07;6.05;;;2.05;;
33954;SDS011;20233;50.804;7.126;2022-07-25T13:45:33;9.27;;;1.95;;
33954;SDS011;20233;50.804;7.126;2022-07-25T13:47:59;8.35;;;2.40;;
33954;SDS011;20233;50.804;7.126;2022-07-25T13:50:25;7.22;;;1.98;;
33954;SDS011;20233;50.804;7.126;2022-07-25T13:52:51;5.70;;;1.85;;
33954;SDS011;20233;50.804;7.126;2022-07-25T13:55:17;19.60;;;2.83;;
33954;SDS011;20233;50.804;7.126;2022-07-25T13:57:44;9.48;;;2.45;;
33954;SDS011;20233;50.804;7.126;2022-07-25T14:00:10;4.18;;;1.73;;
33954;SDS011;20233;50.804;7.126;2022-07-25T14:02:36;3.35;;;1.50;;
33954;SDS011;20233;50.804;7.126;2022-07-25T14:05:02;7.75;;;1.60;;
33954;SDS011;20233;50.804;7.126;2022-07-25T14:07:28;12.02;;;1.90;;
33954;SDS011;20233;50.804;7.126;2022-07-25T14:09:54;5.85;;;1.02;;
33954;SDS011;20233;50.804;7.126;2022-07-25T14:12:19;7.05;;;1.20;;
33954;SDS011;20233;50.804;7.126;2022-07-25T14:14:45;6.88;;;1.30;;
33954;SDS011;20233;50.804;7.126;2022-07-25T14:17:10;4.72;;;1.33;;
33954;SDS011;20233;50.804;7.126;2022-07-25T14:19:36;4.57;;;0.80;;
33954;SDS011;20233;50.804;7.126;2022-07-25T14:22:02;5.93;;;1.08;;
33954;SDS011;20233;50.804;7.126;2022-07-25T14:24:27;4.22;;;0.80;;
33954;SDS011;20233;50.804;7.126;2022-07-25T14:26:53;5.75;;;0.93;;
33954;SDS011;20233;50.804;7.126;2022-07-25T14:29:19;7.75;;;1.02;;
33954;SDS011;20233;50.804;7.126;2022-07-25T14:31:45;4.10;;;0.80;;
33954;SDS011;20233;50.804;7.126;2022-07-25T14:34:11;5.68;;;0.75;;
33954;SDS011;20233;50.804;7.126;2022-07-25T14:36:40;3.28;;;0.85;;
33954;SDS011;20233;50.804;7.126;2022-07-25T14:39:06;5.10;;;2.10;;
33954;SDS011;20233;50.804;7.126;2022-07-25T14:41:31;4.05;;;0.65;;
33954;SDS011;20233;50.804;7.126;2022-07-25T14:43:57;5.45;;;0.77;;
33954;SDS011;20233;50.804;7.126;2022-07-25T14:46:23;8.88;;;1.27;;
33954;SDS011;20233;50.804;7.126;2022-07-25T14:48:49;7.45;;;1.10;;
33954;SDS011;20233;50.804;7.126;2022-07-25T14:51:16;4.05;;;0.80;;
33954;SDS011;20233;50.804;7.126;2022-07-25T14:53:42;5.85;;;1.15;;
33954;SDS011;20233;50.804;7.126;2022-07-25T14:56:07;8.27;;;1.20;;
33954;SDS011;20233;50.804;7.126;2022-07-25T14:58:33;11.02;;;0.95;;
33954;SDS011;20233;50.804;7.126;2022-07-25T15:00:59;5.05;;;0.95;;
33954;SDS011;20233;50.804;7.126;2022-07-25T15:03:25;10.82;;;1.45;;
33954;SDS011;20233;50.804;7.126;2022-07-25T15:05:51;8.18;;;0.93;;
33954;SDS011;20233;50.804;7.126;2022-07-25T15:08:17;3.88;;;1.23;;